createdAt,value
2019-04-07T15:24:38.675Z,22.40
2019-04-07T15:29:31.842Z,22.20
2019-04-07T15:34:26.351Z,22.10
2019-04-07T15:39:21.522Z,22.20
2019-04-07T15:44:17.359Z,22.10
2019-04-07T15:49:11.549Z,22.10
2019-04-07T15:54:04.446Z,22.00
2019-04-07T15:59:03.626Z,21.90
2019-04-07T16:03:55.724Z,21.80
2019-04-07T16:08:51.093Z,21.60
2019-04-07T16:13:43.113Z,21.50
2019-04-07T16:18:45.160Z,21.40
2019-04-07T16:23:37.961Z,21.30
2019-04-07T16:28:31.873Z,21.30
2019-04-07T16:33:25.021Z,21.20
2019-04-07T16:38:18.331Z,21.20
2019-04-07T16:43:20.157Z,21.10
2019-04-07T16:48:11.735Z,21.00
2019-04-07T16:53:09.494Z,20.90
2019-04-07T16:58:04.564Z,20.70
2019-04-07T17:02:57.710Z,20.60
2019-04-07T17:07:49.787Z,20.60
2019-04-07T17:12:44.476Z,20.50
2019-04-07T17:17:37.733Z,20.40
2019-04-07T17:22:32.578Z,20.30
2019-04-07T17:27:29.065Z,20.20
2019-04-07T17:32:37.655Z,20.20
2019-04-07T17:37:30.886Z,20.10
2019-04-07T17:42:28.704Z,19.90
2019-04-07T17:47:20.753Z,19.90
2019-04-07T17:52:14.276Z,19.70
2019-04-07T17:57:07.741Z,19.60
2019-04-07T18:02:01.250Z,19.60
2019-04-07T18:06:56.086Z,19.40
2019-04-07T18:12:04.355Z,19.40
2019-04-07T18:17:03.258Z,19.30
2019-04-07T18:21:56.616Z,19.20
2019-04-07T18:26:52.519Z,19.10
2019-04-07T18:31:45.979Z,19.10
2019-04-07T18:36:38.712Z,19.00
2019-04-07T18:41:36.744Z,18.90
2019-04-07T18:46:28.795Z,18.80
2019-04-07T18:51:20.921Z,18.80
2019-04-07T18:56:15.756Z,18.70
2019-04-07T19:01:12.057Z,18.60
2019-04-07T19:06:10.438Z,18.50
2019-04-07T19:11:17.002Z,18.40
2019-04-07T19:16:21.993Z,18.40
2019-04-07T19:21:14.673Z,18.40
2019-04-07T19:26:07.189Z,18.30
2019-04-07T19:31:00.045Z,18.30
2019-04-07T19:35:52.706Z,18.30
2019-04-07T19:40:49.781Z,18.20
2019-04-07T19:45:42.172Z,18.10
2019-04-07T19:50:35.731Z,18.10
2019-04-07T19:55:29.134Z,18.00
2019-04-07T20:00:28.968Z,18.00
2019-04-07T20:05:21.488Z,17.90
2019-04-07T20:10:25.702Z,17.70
2019-04-07T20:15:19.916Z,17.70
2019-04-07T20:20:13.970Z,17.70
2019-04-07T20:25:17.415Z,17.60
2019-04-07T20:30:17.576Z,17.50
2019-04-07T20:35:15.931Z,17.40
2019-04-07T20:40:07.401Z,17.30
2019-04-07T20:45:14.090Z,17.20
2019-04-07T20:50:15.466Z,17.10
2019-04-07T20:55:11.917Z,17.00
2019-04-07T21:00:08.219Z,16.80
2019-04-07T21:04:59.165Z,16.70
2019-04-07T21:09:51.838Z,16.60
2019-04-07T21:14:45.722Z,16.40
2019-04-07T21:19:39.624Z,16.30
2019-04-07T21:24:32.364Z,16.10
2019-04-07T21:29:24.837Z,16.00
2019-04-07T21:34:17.674Z,15.90
2019-04-07T21:39:10.650Z,15.80
2019-04-07T21:44:04.776Z,15.70
2019-04-07T21:49:03.898Z,15.50
2019-04-07T21:54:02.611Z,15.40
2019-04-07T21:58:59.178Z,15.30
2019-04-07T22:03:50.582Z,15.10
2019-04-07T22:08:47.509Z,15.00
2019-04-07T22:13:39.459Z,14.90
2019-04-07T22:18:32.809Z,14.70
2019-04-07T22:23:33.699Z,14.60
2019-04-07T22:28:31.721Z,14.50
2019-04-07T22:33:32.469Z,14.40
2019-04-07T22:38:25.705Z,14.20
2019-04-07T22:43:21.374Z,14.10
2019-04-07T22:48:14.136Z,14.00
2019-04-07T22:53:05.725Z,13.90
2019-04-07T22:57:58.697Z,13.90
2019-04-07T23:02:52.416Z,13.80
2019-04-07T23:07:44.697Z,13.80
2019-04-07T23:12:38.557Z,13.70
2019-04-07T23:17:32.193Z,13.60
2019-04-07T23:22:24.210Z,13.50
2019-04-07T23:27:16.745Z,13.40
2019-04-07T23:32:10.366Z,13.30
2019-04-07T23:37:02.708Z,13.20
2019-04-07T23:41:54.608Z,13.10
2019-04-07T23:46:47.690Z,13.00
2019-04-07T23:51:40.119Z,12.90
2019-04-07T23:56:33.586Z,12.70
